METAR Data
IDs: Format: Raw Decoded Include TAF

Data at: 0721 UTC 01 Aug 2021

ESTA 010650Z AUTO 24015KT 9999 FEW030/// OVC064/// 17/11 Q1002